»·PEaware :: N733WT KSBP-KSMX

N733WT :: KSBP-KSMX

FLIGHT INFORMATION

Flight Status: Arrived
Operator: Privately registered:
United States
More flights under this callsign
Pilot: Jeremy K. (15416)
Aircraft: CESSNA 172 SKYHAWK
(C172)
More flights by this aircraft type
Origin: KSBP San Luis Co Regl
United States
Destination: KSMX Santa Maria Pub/Capt Hancock
United States
More flights between these airports :: More routes between these airports
Route:
File this flight plan on PilotEdge
Remarks: CAT 04
Altitude:
(Current/Filed)
45,000ft
Speed:
(Current/Filed)
120kts
Departed: 25-May-17 02:01 PM
Arrived: 25-May-17 02:40 PM
Distance/Time
Traveled:
23nm/0:39
Distance/Time
To Go:
Arrived

Flight Plot

Page will automatically refresh every two minutes.


Map Options




Map Legend


Flown Route
Filed Route
Departure Airport
Arrival Airport
Navaid (VOR, NDB)
Fix

Horizontal Profiles

Position Reports

Time Latitude Longitude Heading Altitude Ground
Speed
25-May-17 13:41 35.238402 -120.640125 304 215ft 0kts
25-May-17 13:42 35.238402 -120.640125 304 215ft 0kts
25-May-17 13:43 35.238402 -120.640125 304 215ft 0kts
25-May-17 13:44 35.238402 -120.640125 304 215ft 0kts
25-May-17 13:45 35.238402 -120.640125 304 215ft 0kts
25-May-17 13:46 35.238402 -120.640125 304 215ft 0kts
25-May-17 13:47 35.238402 -120.640125 304 215ft 0kts
25-May-17 13:48 35.238402 -120.640125 304 215ft 0kts
25-May-17 13:49 35.238402 -120.640125 304 215ft 0kts
25-May-17 13:50 35.238402 -120.640125 304 215ft 0kts
25-May-17 13:51 35.238331 -120.640313 210 215ft 5kts
25-May-17 13:52 35.237719 -120.639608 123 215ft 15kts
25-May-17 13:53 35.236513 -120.637614 126 215ft 18kts
25-May-17 13:54 35.235010 -120.635009 126 215ft 22kts
25-May-17 13:55 35.234143 -120.633485 124 215ft 15kts
25-May-17 13:56 35.233191 -120.632429 219 215ft 0kts
25-May-17 13:57 35.233191 -120.632429 219 215ft 0kts
25-May-17 13:58 35.233191 -120.632429 219 215ft 0kts
25-May-17 13:59 35.233191 -120.632429 219 215ft 0kts
25-May-17 14:00 35.233191 -120.632429 219 215ft 0kts
25-May-17 14:01 35.233191 -120.632429 219 215ft 0kts
25-May-17 14:02 35.232821 -120.632961 273 215ft 16kts
25-May-17 14:03 35.235920 -120.638493 303 215ft 86kts
25-May-17 14:04 35.244388 -120.653001 287 895ft 78kts
25-May-17 14:05 35.237107 -120.661140 139 1345ft 75kts
25-May-17 14:06 35.230938 -120.651516 135 1739ft 77kts
25-May-17 14:07 35.221774 -120.648127 174 2012ft 89kts
25-May-17 14:08 35.208217 -120.647424 175 2236ft 101kts
25-May-17 14:09 35.191488 -120.646512 175 2471ft 106kts
25-May-17 14:10 35.174453 -120.645540 175 2700ft 107kts
25-May-17 14:11 35.158791 -120.644617 175 2907ft 107kts
25-May-17 14:12 35.145269 -120.643817 175 3343ft 91kts
25-May-17 14:13 35.134277 -120.641146 161 3870ft 75kts
25-May-17 14:14 35.125229 -120.637705 162 4334ft 68kts
25-May-17 14:15 35.114867 -120.633688 162 4505ft 93kts
25-May-17 14:16 35.102531 -120.628911 162 4538ft 110kts
25-May-17 14:17 35.089149 -120.623114 159 4539ft 117kts
25-May-17 14:18 35.075443 -120.616747 159 4497ft 121kts
25-May-17 14:19 35.061752 -120.609186 152 4536ft 118kts
25-May-17 14:20 35.047732 -120.602027 160 4515ft 121kts
25-May-17 14:21 35.031397 -120.594468 159 4462ft 123kts
25-May-17 14:22 35.017170 -120.587792 156 4415ft 123kts
25-May-17 14:23 35.003663 -120.579381 148 4387ft 123kts
25-May-17 14:24 34.991464 -120.569227 146 4450ft 119kts
25-May-17 14:25 34.978706 -120.558312 137 4455ft 119kts
25-May-17 14:26 34.967522 -120.545749 137 4466ft 121kts
25-May-17 14:27 34.959100 -120.531467 101 3970ft 140kts
25-May-17 14:28 34.956995 -120.510597 102 3192ft 129kts
25-May-17 14:29 34.950379 -120.495327 122 2355ft 120kts
25-May-17 14:30 34.941836 -120.482398 136 1746ft 111kts
25-May-17 14:31 34.933162 -120.470873 133 1393ft 102kts
25-May-17 14:32 34.924021 -120.459984 139 1028ft 92kts
25-May-17 14:33 34.916161 -120.451142 127 963ft 67kts
25-May-17 14:34 34.910789 -120.441943 130 945ft 81kts
25-May-17 14:35 34.903900 -120.430670 122 1006ft 101kts
25-May-17 14:36 34.897493 -120.417535 120 1088ft 104kts
25-May-17 14:37 34.891477 -120.410432 214 1067ft 73kts
25-May-17 14:38 34.886070 -120.418656 225 938ft 69kts
25-May-17 14:39 34.883320 -120.427306 265 861ft 79kts
25-May-17 14:40 34.886048 -120.437808 306 568ft 83kts
25-May-17 14:41 34.892619 -120.445623 314 288ft 68kts
25-May-17 14:42 34.896613 -120.449973 351 265ft 25kts
25-May-17 14:43 34.897400 -120.450003 2 265ft 1kts
25-May-17 14:44 34.897502 -120.450000 0 265ft 0kts
25-May-17 14:45 34.897502 -120.450000 0 265ft 0kts
25-May-17 14:46 34.898073 -120.449617 95 265ft 11kts
25-May-17 14:47 34.896523 -120.447621 89 265ft 20kts
25-May-17 14:48 34.897007 -120.446090 233 265ft 0kts

Navigation Log

Ident Type
1. KSBP Airport
2. KSMX Airport